Time,TemperatureF,DewpointF,PressureIn,WindDirection,WindDirectionDegrees,WindSpeedMPH,WindSpeedGustMPH,Humidity,HourlyPrecipIn,Conditions,Clouds,dailyrainin,SoftwareType,DateUTC
2013-01-16 00:04:00,-4.2,-7.8,31.21,North,355,0.0,0.0,84,0.00,,---,0.00,VWS V14.01,2013-01-16 07:04:00,
2013-01-16 00:09:00,-4.2,-8.0,31.22,North,355,2.0,2.0,83,0.00,,---,0.00,VWS V14.01,2013-01-16 07:09:00,
2013-01-16 00:14:00,-4.1,-7.9,31.21,North,355,3.0,4.0,83,0.00,,---,0.00,VWS V14.01,2013-01-16 07:14:00,
2013-01-16 00:19:00,-3.7,-7.3,31.21,North,355,5.0,5.0,84,0.00,,---,0.00,VWS V14.01,2013-01-16 07:19:00,
2013-01-16 00:24:00,-3.1,-6.5,31.20,North,355,4.0,4.0,85,0.00,,---,0.00,VWS V14.01,2013-01-16 07:24:00,
2013-01-16 00:29:00,-2.8,-6.2,31.20,NNW,348,5.0,5.0,85,0.00,,---,0.00,VWS V14.01,2013-01-16 07:29:00,
2013-01-16 00:34:00,-4.0,-8.4,31.20,NNW,348,3.0,3.0,81,0.00,,---,0.00,VWS V14.01,2013-01-16 07:34:00,
2013-01-16 00:39:00,-4.9,-9.5,31.20,NNW,348,3.0,3.0,80,0.00,,---,0.00,VWS V14.01,2013-01-16 07:39:00,
2013-01-16 00:44:00,-5.2,-9.5,31.20,NNW,345,2.0,2.0,81,0.00,,---,0.00,VWS V14.01,2013-01-16 07:44:00,
2013-01-16 00:49:00,-4.8,-8.4,31.21,NNW,345,0.0,0.0,84,0.00,,---,0.00,VWS V14.01,2013-01-16 07:49:00,
2013-01-16 00:54:00,-4.7,-8.3,31.21,NNW,345,2.0,3.0,84,0.00,,---,0.00,VWS V14.01,2013-01-16 07:54:00,
2013-01-16 00:59:00,-4.8,-8.6,31.21,NNW,345,2.0,2.0,83,0.00,,---,0.00,VWS V14.01,2013-01-16 07:59:00,
2013-01-16 01:04:00,-4.9,-8.7,31.20,NNW,345,1.0,1.0,83,0.00,,---,0.00,VWS V14.01,2013-01-16 08:04:00,
2013-01-16 01:09:00,-4.9,-8.7,31.19,NNW,345,0.0,0.0,83,0.00,,---,0.00,VWS V14.01,2013-01-16 08:09:00,
2013-01-16 01:14:00,-4.8,-8.4,31.19,NNW,345,1.0,2.0,84,0.00,,---,0.00,VWS V14.01,2013-01-16 08:14:00,
2013-01-16 01:19:00,-4.5,-8.1,31.19,NNW,345,0.0,0.0,84,0.00,,---,0.00,VWS V14.01,2013-01-16 08:19:00,
2013-01-16 01:24:00,-4.4,-8.0,31.20,NNW,341,5.0,7.0,84,0.00,,---,0.00,VWS V14.01,2013-01-16 08:24:00,
2013-01-16 01:29:00,-4.6,-8.4,31.20,NNW,338,0.0,0.0,83,0.00,,---,0.00,VWS V14.01,2013-01-16 08:29:00,
2013-01-16 01:34:00,-5.2,-9.5,31.20,NNW,338,0.0,0.0,81,0.00,,---,0.00,VWS V14.01,2013-01-16 08:34:00,
2013-01-16 01:39:00,-5.5,-10.1,31.20,NNW,338,0.0,0.0,80,0.00,,---,0.00,VWS V14.01,2013-01-16 08:39:00,
2013-01-16 01:44:00,-6.0,-10.6,31.20,NNW,338,1.0,1.0,80,0.00,,---,0.00,VWS V14.01,2013-01-16 08:44:00,
2013-01-16 01:49:00,-6.1,-10.1,31.20,NNW,338,4.0,4.0,82,0.00,,---,0.00,VWS V14.01,2013-01-16 08:49:00,
2013-01-16 01:54:00,-5.9,-9.7,31.20,NNW,338,2.0,3.0,83,0.00,,---,0.00,VWS V14.01,2013-01-16 08:54:00,
2013-01-16 01:59:00,-5.9,-9.7,31.21,NNW,338,2.0,4.0,83,0.00,,---,0.00,VWS V14.01,2013-01-16 08:59:00,
2013-01-16 02:04:00,-6.4,-10.7,31.20,NNW,338,2.0,2.0,81,0.00,,---,0.00,VWS V14.01,2013-01-16 09:04:00,
2013-01-16 02:09:00,-6.8,-11.1,31.21,NNW,338,1.0,1.0,81,0.00,,---,0.00,VWS V14.01,2013-01-16 09:09:00,
2013-01-16 02:14:00,-7.2,-11.5,31.20,NNW,338,0.0,0.0,81,0.00,,---,0.00,VWS V14.01,2013-01-16 09:14:00,
2013-01-16 02:19:00,-7.2,-11.0,31.21,NNW,338,1.0,2.0,83,0.00,,---,0.00,VWS V14.01,2013-01-16 09:19:00,
2013-01-16 02:24:00,-6.8,-10.4,31.20,NNW,338,2.0,3.0,84,0.00,,---,0.00,VWS V14.01,2013-01-16 09:24:00,
2013-01-16 02:29:00,-6.4,-9.7,31.20,NNW,338,0.0,0.0,85,0.00,,---,0.00,VWS V14.01,2013-01-16 09:29:00,
2013-01-16 02:34:00,-6.3,-9.6,31.20,NNW,338,0.0,0.0,85,0.00,,---,0.00,VWS V14.01,2013-01-16 09:34:00,
2013-01-16 02:39:00,-6.3,-9.6,31.20,NNW,338,0.0,0.0,85,0.00,,---,0.00,VWS V14.01,2013-01-16 09:39:00,
2013-01-16 02:44:00,-6.3,-9.6,31.20,NNW,338,1.0,2.0,85,0.00,,---,0.00,VWS V14.01,2013-01-16 09:44:00,
2013-01-16 02:49:00,-6.3,-9.6,31.20,NNW,338,1.0,2.0,85,0.00,,---,0.00,VWS V14.01,2013-01-16 09:49:00,
2013-01-16 02:54:00,-5.7,-9.0,31.20,NNW,338,3.0,3.0,85,0.00,,---,0.00,VWS V14.01,2013-01-16 09:54:00,
2013-01-16 02:59:00,-5.4,-8.7,31.20,NNW,338,0.0,0.0,85,0.00,,---,0.00,VWS V14.01,2013-01-16 09:59:00,
2013-01-16 03:04:00,-5.1,-8.2,31.20,NNW,338,1.0,3.0,86,0.00,,---,0.00,VWS V14.01,2013-01-16 10:04:00,
2013-01-16 03:10:00,-5.7,-9.3,31.20,NNW,338,1.0,1.0,84,0.00,,---,0.00,VWS V14.01,2013-01-16 10:10:00,
2013-01-16 03:14:00,-6.3,-10.4,31.19,NNW,338,7.0,7.0,82,0.00,,---,0.00,VWS V14.01,2013-01-16 10:14:00,
2013-01-16 03:19:00,-6.8,-10.8,31.19,NNW,336,0.0,2.0,82,0.00,,---,0.00,VWS V14.01,2013-01-16 10:19:00,
2013-01-16 03:25:00,-7.0,-10.8,31.19,NNW,336,2.0,2.0,83,0.00,,---,0.00,VWS V14.01,2013-01-16 10:25:00,
2013-01-16 03:30:00,-7.1,-10.9,31.19,NNW,336,1.0,1.0,83,0.00,,---,0.00,VWS V14.01,2013-01-16 10:30:00,
2013-01-16 03:35:00,-7.1,-10.9,31.19,NNW,336,1.0,2.0,83,0.00,,---,0.00,VWS V14.01,2013-01-16 10:35:00,
2013-01-16 03:40:00,-6.9,-10.4,31.18,NNW,336,0.0,0.0,84,0.00,,---,0.00,VWS V14.01,2013-01-16 10:40:00,
2013-01-16 03:45:00,-6.7,-10.0,31.18,NNW,336,0.0,0.0,85,0.00,,---,0.00,VWS V14.01,2013-01-16 10:45:00,
2013-01-16 03:50:00,-7.0,-10.6,31.19,NNW,336,0.0,1.0,84,0.00,,---,0.00,VWS V14.01,2013-01-16 10:50:00,
2013-01-16 03:55:00,-7.3,-11.1,31.19,NNW,336,0.0,0.0,83,0.00,,---,0.00,VWS V14.01,2013-01-16 10:55:00,
2013-01-16 04:00:00,-7.5,-11.3,31.19,NNW,337,4.0,5.0,83,0.00,,---,0.00,VWS V14.01,2013-01-16 11:00:00,
2013-01-16 04:05:00,-7.1,-10.6,31.19,NNW,337,1.0,3.0,84,0.00,,---,0.00,VWS V14.01,2013-01-16 11:05:00,
2013-01-16 04:10:00,-6.5,-9.8,31.18,NNW,337,0.0,0.0,85,0.00,,---,0.00,VWS V14.01,2013-01-16 11:10:00,
2013-01-16 04:15:00,-6.2,-9.3,31.17,NNW,337,1.0,2.0,86,0.00,,---,0.00,VWS V14.01,2013-01-16 11:15:00,
2013-01-16 04:20:00,-5.9,-9.0,31.17,NNW,337,3.0,3.0,86,0.00,,---,0.00,VWS V14.01,2013-01-16 11:20:00,
2013-01-16 04:25:00,-5.2,-8.3,31.17,NNW,337,1.0,1.0,86,0.00,,---,0.00,VWS V14.01,2013-01-16 11:25:00,
2013-01-16 04:30:00,-4.7,-7.8,31.17,NNW,336,0.0,0.0,86,0.00,,---,0.00,VWS V14.01,2013-01-16 11:30:00,
2013-01-16 04:35:00,-5.7,-9.8,31.17,NNW,336,2.0,2.0,82,0.00,,---,0.00,VWS V14.01,2013-01-16 11:35:00,
2013-01-16 04:40:00,-7.1,-11.9,31.17,NNW,336,1.0,1.0,79,0.00,,---,0.00,VWS V14.01,2013-01-16 11:40:00,
2013-01-16 04:45:00,-7.6,-12.1,31.17,NNW,336,0.0,0.0,80,0.00,,---,0.00,VWS V14.01,2013-01-16 11:45:00,
2013-01-16 04:50:00,-7.8,-11.8,31.17,NNW,336,1.0,1.0,82,0.00,,---,0.00,VWS V14.01,2013-01-16 11:50:00,
2013-01-16 04:55:00,-8.3,-12.8,31.16,NNW,336,0.0,0.0,80,0.00,,---,0.00,VWS V14.01,2013-01-16 11:55:00,
2013-01-16 05:00:00,-9.3,-14.0,31.17,NNW,337,3.0,3.0,79,0.00,,---,0.00,VWS V14.01,2013-01-16 12:00:00,
2013-01-16 05:05:00,-9.9,-14.6,31.16,NNW,337,2.0,3.0,79,0.00,,---,0.00,VWS V14.01,2013-01-16 12:05:00,
2013-01-16 05:10:00,-10.0,-14.2,31.16,NNW,337,0.0,0.0,81,0.00,,---,0.00,VWS V14.01,2013-01-16 12:10:00,
2013-01-16 05:15:00,-9.8,-13.5,31.16,NNW,337,0.0,0.0,83,0.00,,---,0.00,VWS V14.01,2013-01-16 12:15:00,
2013-01-16 05:20:00,-9.7,-13.4,31.16,NNW,337,0.0,0.0,83,0.00,,---,0.00,VWS V14.01,2013-01-16 12:20:00,
2013-01-16 05:25:00,-9.2,-12.7,31.16,NNW,337,0.0,0.0,84,0.00,,---,0.00,VWS V14.01,2013-01-16 12:25:00,
2013-01-16 05:30:00,-8.7,-12.0,31.17,NNW,337,1.0,2.0,85,0.00,,---,0.00,VWS V14.01,2013-01-16 12:30:00,
2013-01-16 05:35:00,-8.1,-11.4,31.17,NNW,337,0.0,0.0,85,0.00,,---,0.00,VWS V14.01,2013-01-16 12:35:00,
2013-01-16 05:40:00,-8.5,-12.3,31.16,NNW,337,0.0,0.0,83,0.00,,---,0.00,VWS V14.01,2013-01-16 12:40:00,
2013-01-16 05:46:00,-8.8,-12.8,31.16,NNW,337,0.0,0.0,82,0.00,,---,0.00,VWS V14.01,2013-01-16 12:46:00,
2013-01-16 05:51:00,-8.8,-12.6,31.16,NNW,337,1.0,1.0,83,0.00,,---,0.00,VWS V14.01,2013-01-16 12:51:00,
2013-01-16 05:56:00,-8.8,-12.6,31.17,NNW,336,4.0,5.0,83,0.00,,---,0.00,VWS V14.01,2013-01-16 12:56:00,
2013-01-16 06:01:00,-9.5,-13.5,31.17,NNW,336,3.0,3.0,82,0.00,,---,0.00,VWS V14.01,2013-01-16 13:01:00,
2013-01-16 06:06:00,-9.6,-13.3,31.17,NNW,336,3.0,3.0,83,0.00,,---,0.00,VWS V14.01,2013-01-16 13:06:00,
2013-01-16 06:11:00,-9.0,-12.5,31.17,NNW,335,3.0,3.0,84,0.00,,---,0.00,VWS V14.01,2013-01-16 13:11:00,
2013-01-16 06:16:00,-8.3,-11.6,31.17,NNW,335,1.0,1.0,85,0.00,,---,0.00,VWS V14.01,2013-01-16 13:16:00,
2013-01-16 06:21:00,-8.2,-11.7,31.17,NNW,335,1.0,2.0,84,0.00,,---,0.00,VWS V14.01,2013-01-16 13:21:00,
2013-01-16 06:26:00,-7.5,-10.8,31.17,NNW,335,0.0,0.0,85,0.00,,---,0.00,VWS V14.01,2013-01-16 13:26:00,
2013-01-16 06:31:00,-6.8,-9.9,31.16,NNW,335,5.0,5.0,86,0.00,,---,0.00,VWS V14.01,2013-01-16 13:31:00,
2013-01-16 06:36:00,-6.1,-9.4,31.16,NNW,335,0.0,1.0,85,0.00,,---,0.00,VWS V14.01,2013-01-16 13:36:00,
2013-01-16 06:41:00,-6.3,-9.9,31.16,NNW,335,1.0,1.0,84,0.00,,---,0.00,VWS V14.01,2013-01-16 13:41:00,
2013-01-16 06:46:00,-6.5,-10.3,31.16,NNW,335,0.0,0.0,83,0.00,,---,0.00,VWS V14.01,2013-01-16 13:46:00,
2013-01-16 06:51:00,-6.5,-10.3,31.16,NNW,335,0.0,0.0,83,0.00,,---,0.00,VWS V14.01,2013-01-16 13:51:00,
2013-01-16 06:56:00,-6.4,-10.0,31.16,NNW,335,0.0,0.0,84,0.00,,---,0.00,VWS V14.01,2013-01-16 13:56:00,
2013-01-16 07:01:00,-6.4,-10.0,31.16,NNW,335,0.0,0.0,84,0.00,,---,0.00,VWS V14.01,2013-01-16 14:01:00,
2013-01-16 07:06:00,-6.6,-10.4,31.16,NNW,335,0.0,0.0,83,0.00,,---,0.00,VWS V14.01,2013-01-16 14:06:00,
2013-01-16 07:11:00,-6.8,-10.6,31.15,NNW,335,0.0,0.0,83,0.00,,---,0.00,VWS V14.01,2013-01-16 14:11:00,
2013-01-16 07:16:00,-6.6,-10.2,31.15,NNW,334,6.0,8.0,84,0.00,,---,0.00,VWS V14.01,2013-01-16 14:16:00,
2013-01-16 07:21:00,-6.1,-9.7,31.15,NNW,333,6.0,6.0,84,0.00,,---,0.00,VWS V14.01,2013-01-16 14:21:00,
2013-01-16 07:26:00,-6.2,-10.0,31.15,NNW,331,4.0,4.0,83,0.00,,---,0.00,VWS V14.01,2013-01-16 14:26:00,
2013-01-16 07:31:00,-7.1,-11.4,31.14,NNW,331,0.0,0.0,81,0.00,,---,0.00,VWS V14.01,2013-01-16 14:31:00,
2013-01-16 07:36:00,-7.5,-11.8,31.14,NW,324,3.0,5.0,81,0.00,,---,0.00,VWS V14.01,2013-01-16 14:36:00,
2013-01-16 07:41:00,-7.1,-10.6,31.15,NW,324,2.0,2.0,84,0.00,,---,0.00,VWS V14.01,2013-01-16 14:41:00,
2013-01-16 07:46:00,-6.8,-10.4,31.15,NW,326,0.0,0.0,84,0.00,,---,0.00,VWS V14.01,2013-01-16 14:46:00,
2013-01-16 07:51:00,-6.7,-10.3,31.15,NW,326,0.0,2.0,84,0.00,,---,0.00,VWS V14.01,2013-01-16 14:51:00,
2013-01-16 07:56:00,-6.6,-10.2,31.15,NW,326,0.0,0.0,84,0.00,,---,0.00,VWS V14.01,2013-01-16 14:56:00,
2013-01-16 08:02:00,-6.4,-10.2,31.15,NNW,327,5.0,6.0,83,0.00,,---,0.00,VWS V14.01,2013-01-16 15:02:00,
2013-01-16 08:07:00,-5.5,-8.8,31.15,NNW,327,3.0,4.0,85,0.00,,---,0.00,VWS V14.01,2013-01-16 15:07:00,
2013-01-16 08:12:00,-5.3,-8.9,31.15,NNW,327,2.0,4.0,84,0.00,,---,0.00,VWS V14.01,2013-01-16 15:12:00,
2013-01-16 08:17:00,-5.8,-10.4,31.15,NNW,327,0.0,0.0,80,0.00,,---,0.00,VWS V14.01,2013-01-16 15:17:00,
2013-01-16 08:22:00,-6.6,-11.4,31.15,NNW,327,0.0,0.0,79,0.00,,---,0.00,VWS V14.01,2013-01-16 15:22:00,
2013-01-16 08:27:00,-6.2,-10.5,31.16,NNW,327,2.0,2.0,81,0.00,,---,0.00,VWS V14.01,2013-01-16 15:27:00,
2013-01-16 08:32:00,-5.7,-9.8,31.16,NNW,327,1.0,3.0,82,0.00,,---,0.00,VWS V14.01,2013-01-16 15:32:00,
2013-01-16 08:37:00,-6.4,-10.7,31.16,NNW,327,0.0,0.0,81,0.00,,---,0.00,VWS V14.01,2013-01-16 15:37:00,
2013-01-16 08:42:00,-6.0,-9.8,31.17,NNW,327,0.0,0.0,83,0.00,,---,0.00,VWS V14.01,2013-01-16 15:42:00,
2013-01-16 08:47:00,-5.3,-9.1,31.17,NNW,327,0.0,0.0,83,0.00,,---,0.00,VWS V14.01,2013-01-16 15:47:00,
2013-01-16 08:52:00,-4.6,-8.4,31.17,NNW,327,0.0,0.0,83,0.00,,---,0.00,VWS V14.01,2013-01-16 15:52:00,
2013-01-16 08:57:00,-4.5,-8.3,31.17,NNW,327,0.0,0.0,83,0.00,,---,0.00,VWS V14.01,2013-01-16 15:57:00,
2013-01-16 09:02:00,-3.6,-7.5,31.17,NNW,327,0.0,0.0,83,0.00,,---,0.00,VWS V14.01,2013-01-16 16:02:00,
2013-01-16 09:07:00,-3.9,-8.0,31.17,NNW,327,3.0,3.0,82,0.00,,---,0.00,VWS V14.01,2013-01-16 16:07:00,
2013-01-16 09:12:00,-3.4,-7.5,31.18,NNW,327,2.0,3.0,82,0.00,,---,0.00,VWS V14.01,2013-01-16 16:12:00,
2013-01-16 09:17:00,-4.1,-8.4,31.18,NNW,327,1.0,1.0,81,0.00,,---,0.00,VWS V14.01,2013-01-16 16:17:00,
2013-01-16 09:22:00,-4.4,-8.7,31.18,NNW,327,0.0,0.0,81,0.00,,---,0.00,VWS V14.01,2013-01-16 16:22:00,
2013-01-16 09:27:00,-4.2,-8.5,31.18,NNW,327,3.0,4.0,81,0.00,,---,0.00,VWS V14.01,2013-01-16 16:27:00,
2013-01-16 09:32:00,-3.5,-7.6,31.18,NNW,327,5.0,5.0,82,0.00,,---,0.00,VWS V14.01,2013-01-16 16:32:00,
2013-01-16 09:37:00,-1.8,-5.7,31.18,NNW,327,2.0,2.0,83,0.00,,---,0.00,VWS V14.01,2013-01-16 16:37:00,
2013-01-16 09:42:00,-1.6,-6.0,31.18,NNW,327,2.0,3.0,81,0.00,,---,0.00,VWS V14.01,2013-01-16 16:42:00,
2013-01-16 09:47:00,-1.2,-5.9,31.18,NNW,327,3.0,3.0,80,0.00,,---,0.00,VWS V14.01,2013-01-16 16:47:00,
2013-01-16 09:52:00,-0.5,-5.4,31.18,NNW,327,2.0,3.0,79,0.00,,---,0.00,VWS V14.01,2013-01-16 16:52:00,
2013-01-16 09:57:00,0.2,-4.5,31.18,NNW,327,0.0,0.0,80,0.00,,---,0.00,VWS V14.01,2013-01-16 16:57:00,
2013-01-16 10:02:00,0.8,-4.2,31.18,NNW,327,2.0,2.0,79,0.00,,---,0.00,VWS V14.01,2013-01-16 17:02:00,
2013-01-16 10:07:00,1.0,-4.2,31.17,NNW,327,3.0,3.0,78,0.00,,---,0.00,VWS V14.01,2013-01-16 17:07:00,
2013-01-16 10:12:00,1.6,-3.7,31.17,NNW,327,3.0,4.0,78,0.00,,---,0.00,VWS V14.01,2013-01-16 17:12:00,
2013-01-16 10:17:00,2.4,-2.9,31.16,NNW,327,2.0,2.0,78,0.00,,---,0.00,VWS V14.01,2013-01-16 17:17:00,
2013-01-16 10:22:00,3.2,-2.4,31.16,NNW,327,0.0,0.0,77,0.00,,---,0.00,VWS V14.01,2013-01-16 17:22:00,
2013-01-16 10:27:00,3.6,-2.3,31.16,NNW,327,0.0,0.0,76,0.00,,---,0.00,VWS V14.01,2013-01-16 17:27:00,
2013-01-16 10:32:00,3.8,-2.1,31.15,NNW,327,0.0,0.0,76,0.00,,---,0.00,VWS V14.01,2013-01-16 17:32:00,
2013-01-16 10:37:00,5.1,-0.5,31.15,NNW,327,0.0,0.0,77,0.00,,---,0.00,VWS V14.01,2013-01-16 17:37:00,
2013-01-16 10:43:00,4.5,-1.9,31.15,NNW,327,0.0,0.0,74,0.00,,---,0.00,VWS V14.01,2013-01-16 17:43:00,
2013-01-16 10:47:00,4.1,-2.0,31.15,NNW,327,0.0,0.0,75,0.00,,---,0.00,VWS V14.01,2013-01-16 17:47:00,
2013-01-16 10:53:00,4.2,-1.7,31.15,NNW,327,0.0,0.0,76,0.00,,---,0.00,VWS V14.01,2013-01-16 17:53:00,
2013-01-16 10:58:00,4.1,-2.0,31.15,NNW,327,0.0,0.0,75,0.00,,---,0.00,VWS V14.01,2013-01-16 17:58:00,
2013-01-16 11:03:00,4.7,-1.8,31.15,NNW,327,1.0,2.0,74,0.00,,---,0.00,VWS V14.01,2013-01-16 18:03:00,
2013-01-16 11:08:00,4.7,-1.5,31.15,NNW,327,0.0,0.0,75,0.00,,---,0.00,VWS V14.01,2013-01-16 18:08:00,
2013-01-16 11:13:00,5.1,-1.4,31.14,NNW,327,0.0,0.0,74,0.00,,---,0.00,VWS V14.01,2013-01-16 18:13:00,
2013-01-16 11:18:00,5.3,-1.5,31.14,NNW,327,0.0,0.0,73,0.00,,---,0.00,VWS V14.01,2013-01-16 18:18:00,
2013-01-16 11:23:00,5.4,-1.4,31.14,NNW,327,2.0,3.0,73,0.00,,---,0.00,VWS V14.01,2013-01-16 18:23:00,
2013-01-16 11:28:00,5.1,-1.6,31.13,NNW,327,0.0,0.0,73,0.00,,---,0.00,VWS V14.01,2013-01-16 18:28:00,
2013-01-16 11:33:00,5.8,-1.0,31.13,NNW,327,0.0,0.0,73,0.00,,---,0.00,VWS V14.01,2013-01-16 18:33:00,
2013-01-16 11:38:00,6.0,-0.8,31.13,NNW,327,0.0,0.0,73,0.00,,---,0.00,VWS V14.01,2013-01-16 18:38:00,
2013-01-16 11:43:00,6.3,-0.5,31.12,NNW,327,1.0,2.0,73,0.00,,---,0.00,VWS V14.01,2013-01-16 18:43:00,
2013-01-16 11:48:00,6.4,-0.1,31.12,NNW,327,0.0,2.0,74,0.00,,---,0.00,VWS V14.01,2013-01-16 18:48:00,
2013-01-16 11:53:00,6.8,0.0,31.12,NNW,327,0.0,0.0,73,0.00,,---,0.00,VWS V14.01,2013-01-16 18:53:00,
2013-01-16 11:58:00,7.3,0.8,31.11,NNW,327,0.0,0.0,74,0.00,,---,0.00,VWS V14.01,2013-01-16 18:58:00,
2013-01-16 12:03:00,7.7,1.2,31.10,NNW,327,1.0,2.0,74,0.00,,---,0.00,VWS V14.01,2013-01-16 19:03:00,
2013-01-16 12:08:00,8.7,2.4,31.10,NNW,327,0.0,0.0,75,0.01,,---,0.01,VWS V14.01,2013-01-16 19:08:00,
2013-01-16 12:13:00,9.6,3.0,31.09,NNW,327,0.0,1.0,74,0.01,,---,0.01,VWS V14.01,2013-01-16 19:13:00,
2013-01-16 12:18:00,10.8,3.6,31.09,NNW,327,4.0,4.0,72,0.01,,---,0.01,VWS V14.01,2013-01-16 19:18:00,
2013-01-16 12:23:00,11.1,3.5,31.08,NNW,327,3.0,3.0,71,0.01,,---,0.01,VWS V14.01,2013-01-16 19:23:00,
2013-01-16 12:28:00,11.7,4.1,31.08,NNW,327,2.0,2.0,71,0.01,,---,0.01,VWS V14.01,2013-01-16 19:28:00,
2013-01-16 12:33:00,12.1,4.5,31.07,NNW,327,0.0,0.0,71,0.01,,---,0.01,VWS V14.01,2013-01-16 19:33:00,
2013-01-16 12:38:00,12.3,4.7,31.07,NNW,327,0.0,0.0,71,0.01,,---,0.01,VWS V14.01,2013-01-16 19:38:00,
2013-01-16 12:43:00,12.3,4.1,31.07,NNW,327,0.0,0.0,69,0.01,,---,0.01,VWS V14.01,2013-01-16 19:43:00,
2013-01-16 12:48:00,12.1,4.2,31.06,NNW,327,1.0,2.0,70,0.01,,---,0.01,VWS V14.01,2013-01-16 19:48:00,
2013-01-16 12:53:00,12.7,4.8,31.06,NNW,328,3.0,4.0,70,0.01,,---,0.01,VWS V14.01,2013-01-16 19:53:00,
2013-01-16 12:58:00,12.7,4.8,31.06,NNW,331,1.0,3.0,70,0.01,,---,0.01,VWS V14.01,2013-01-16 19:58:00,
2013-01-16 13:03:00,13.0,5.4,31.06,NNW,331,2.0,3.0,71,0.01,,---,0.01,VWS V14.01,2013-01-16 20:03:00,
2013-01-16 13:08:00,13.0,5.1,31.05,NNW,331,3.0,3.0,70,0.00,,---,0.01,VWS V14.01,2013-01-16 20:08:00,
2013-01-16 13:13:00,13.1,5.5,31.04,NNW,331,4.0,4.0,71,0.00,,---,0.01,VWS V14.01,2013-01-16 20:13:00,
2013-01-16 13:18:00,13.1,5.5,31.04,NNW,331,1.0,2.0,71,0.00,,---,0.01,VWS V14.01,2013-01-16 20:18:00,
2013-01-16 13:23:00,12.9,5.0,31.03,NNW,331,2.0,4.0,70,0.00,,---,0.01,VWS V14.01,2013-01-16 20:23:00,
2013-01-16 13:28:00,12.8,4.9,31.03,NNW,331,5.0,5.0,70,0.00,,---,0.01,VWS V14.01,2013-01-16 20:28:00,
2013-01-16 13:33:00,11.4,4.1,31.03,SE,133,7.0,7.0,72,0.00,,---,0.01,VWS V14.01,2013-01-16 20:33:00,
2013-01-16 13:38:00,10.8,3.9,31.03,SE,134,3.0,3.0,73,0.00,,---,0.01,VWS V14.01,2013-01-16 20:38:00,
2013-01-16 13:43:00,11.1,3.8,31.03,SE,134,3.0,5.0,72,0.00,,---,0.01,VWS V14.01,2013-01-16 20:43:00,
2013-01-16 13:48:00,10.7,3.5,31.02,SE,134,2.0,3.0,72,0.00,,---,0.01,VWS V14.01,2013-01-16 20:48:00,
2013-01-16 13:53:00,10.9,3.7,31.03,SE,133,2.0,4.0,72,0.00,,---,0.01,VWS V14.01,2013-01-16 20:53:00,
2013-01-16 13:58:00,11.3,4.1,31.03,SE,133,5.0,6.0,72,0.00,,---,0.01,VWS V14.01,2013-01-16 20:58:00,
2013-01-16 14:03:00,11.0,3.5,31.03,SE,133,5.0,5.0,71,0.00,,---,0.01,VWS V14.01,2013-01-16 21:03:00,
2013-01-16 14:08:00,10.8,3.6,31.03,SE,142,6.0,6.0,72,0.00,,---,0.01,VWS V14.01,2013-01-16 21:08:00,
2013-01-16 14:13:00,10.8,3.3,31.03,SSE,148,6.0,8.0,71,0.00,,---,0.01,VWS V14.01,2013-01-16 21:13:00,
2013-01-16 14:18:00,10.4,3.5,31.03,SSE,148,5.0,7.0,73,0.00,,---,0.01,VWS V14.01,2013-01-16 21:18:00,
2013-01-16 14:23:00,10.0,2.8,31.04,SSE,148,5.0,5.0,72,0.00,,---,0.01,VWS V14.01,2013-01-16 21:23:00,
2013-01-16 14:28:00,10.1,3.2,31.03,SSE,148,2.0,2.0,73,0.00,,---,0.01,VWS V14.01,2013-01-16 21:28:00,
2013-01-16 14:33:00,10.2,3.0,31.03,SSE,148,1.0,2.0,72,0.00,,---,0.01,VWS V14.01,2013-01-16 21:33:00,
2013-01-16 14:38:00,10.1,3.2,31.03,SE,131,5.0,5.0,73,0.00,,---,0.01,VWS V14.01,2013-01-16 21:38:00,
2013-01-16 14:43:00,10.3,3.4,31.03,SE,131,2.0,3.0,73,0.00,,---,0.01,VWS V14.01,2013-01-16 21:43:00,
2013-01-16 14:49:00,10.7,3.5,31.03,SE,131,1.0,2.0,72,0.00,,---,0.01,VWS V14.01,2013-01-16 21:49:00,
2013-01-16 14:54:00,10.8,3.6,31.03,SE,131,0.0,0.0,72,0.00,,---,0.01,VWS V14.01,2013-01-16 21:54:00,
2013-01-16 14:59:00,10.9,3.7,31.03,SE,131,2.0,3.0,72,0.00,,---,0.01,VWS V14.01,2013-01-16 21:59:00,
2013-01-16 15:04:00,10.8,3.6,31.03,SE,131,0.0,0.0,72,0.00,,---,0.01,VWS V14.01,2013-01-16 22:04:00,
2013-01-16 15:09:00,11.0,3.8,31.03,SE,131,0.0,0.0,72,0.00,,---,0.01,VWS V14.01,2013-01-16 22:09:00,
2013-01-16 15:14:00,11.4,4.1,31.03,SE,131,3.0,3.0,72,0.00,,---,0.01,VWS V14.01,2013-01-16 22:14:00,
2013-01-16 15:19:00,10.8,3.6,31.03,SE,131,0.0,0.0,72,0.00,,---,0.01,VWS V14.01,2013-01-16 22:19:00,
2013-01-16 15:24:00,11.3,4.1,31.03,SE,131,0.0,3.0,72,0.00,,---,0.01,VWS V14.01,2013-01-16 22:24:00,
2013-01-16 15:29:00,11.3,4.1,31.03,SE,131,0.0,1.0,72,0.00,,---,0.01,VWS V14.01,2013-01-16 22:29:00,
2013-01-16 15:34:00,11.0,3.8,31.03,SE,131,3.0,3.0,72,0.00,,---,0.01,VWS V14.01,2013-01-16 22:34:00,
2013-01-16 15:39:00,11.3,4.1,31.03,SE,131,3.0,4.0,72,0.00,,---,0.01,VWS V14.01,2013-01-16 22:39:00,
2013-01-16 15:44:00,11.3,4.3,31.03,North,360,4.0,5.0,73,0.00,,---,0.01,VWS V14.01,2013-01-16 22:44:00,
2013-01-16 15:49:00,11.5,4.5,31.02,North,355,3.0,3.0,73,0.00,,---,0.01,VWS V14.01,2013-01-16 22:49:00,
2013-01-16 15:54:00,12.4,5.1,31.02,North,355,1.0,3.0,72,0.00,,---,0.01,VWS V14.01,2013-01-16 22:54:00,
2013-01-16 15:59:00,12.5,4.9,31.03,North,355,0.0,0.0,71,0.00,,---,0.01,VWS V14.01,2013-01-16 22:59:00,
2013-01-16 16:04:00,12.8,4.9,31.03,North,355,1.0,3.0,70,0.00,,---,0.01,VWS V14.01,2013-01-16 23:04:00,
2013-01-16 16:09:00,12.8,4.9,31.03,North,355,1.0,2.0,70,0.00,,---,0.01,VWS V14.01,2013-01-16 23:09:00,
2013-01-16 16:14:00,11.7,4.1,31.02,North,355,0.0,0.0,71,0.00,,---,0.01,VWS V14.01,2013-01-16 23:14:00,
2013-01-16 16:19:00,12.1,4.8,31.02,North,355,0.0,0.0,72,0.00,,---,0.01,VWS V14.01,2013-01-16 23:19:00,
2013-01-16 16:24:00,11.8,5.1,31.02,North,355,0.0,0.0,74,0.00,,---,0.01,VWS V14.01,2013-01-16 23:24:00,
2013-01-16 16:29:00,11.9,4.9,31.03,North,355,0.0,0.0,73,0.00,,---,0.01,VWS V14.01,2013-01-16 23:29:00,
2013-01-16 16:34:00,12.0,5.3,31.02,North,355,0.0,0.0,74,0.00,,---,0.01,VWS V14.01,2013-01-16 23:34:00,
2013-01-16 16:39:00,12.2,4.9,31.03,North,355,0.0,0.0,72,0.00,,---,0.01,VWS V14.01,2013-01-16 23:39:00,
2013-01-16 16:44:00,12.1,4.8,31.02,North,355,1.0,1.0,72,0.00,,---,0.01,VWS V14.01,2013-01-16 23:44:00,
2013-01-16 16:49:00,11.8,4.2,31.02,North,355,0.0,0.0,71,0.00,,---,0.01,VWS V14.01,2013-01-16 23:49:00,
2013-01-16 16:54:00,11.3,3.4,31.03,North,355,0.0,1.0,70,0.00,,---,0.01,VWS V14.01,2013-01-16 23:54:00,
2013-01-16 16:59:00,10.7,3.5,31.03,North,355,1.0,1.0,72,0.00,,---,0.01,VWS V14.01,2013-01-16 23:59:00,
2013-01-16 17:04:00,10.3,3.7,31.03,North,355,2.0,2.0,74,0.00,,---,0.01,VWS V14.01,2013-01-17 00:04:00,
2013-01-16 17:09:00,10.0,3.4,31.03,North,355,3.0,3.0,74,0.00,,---,0.01,VWS V14.01,2013-01-17 00:09:00,
2013-01-16 17:14:00,9.8,3.5,31.03,North,355,0.0,0.0,75,0.00,,---,0.01,VWS V14.01,2013-01-17 00:14:00,
2013-01-16 17:19:00,9.5,2.9,31.04,North,355,0.0,0.0,74,0.00,,---,0.01,VWS V14.01,2013-01-17 00:19:00,
2013-01-16 17:24:00,9.0,2.4,31.04,North,355,1.0,1.0,74,0.00,,---,0.01,VWS V14.01,2013-01-17 00:24:00,
2013-01-16 17:29:00,8.3,2.3,31.05,North,360,0.0,0.0,76,0.00,,---,0.01,VWS V14.01,2013-01-17 00:29:00,
2013-01-16 17:34:00,8.1,2.7,31.05,North,360,0.0,1.0,78,0.00,,---,0.01,VWS V14.01,2013-01-17 00:34:00,
2013-01-16 17:39:00,7.8,2.4,31.05,North,360,0.0,0.0,78,0.00,,---,0.01,VWS V14.01,2013-01-17 00:39:00,
2013-01-16 17:44:00,7.5,1.8,31.05,North,360,3.0,3.0,77,0.00,,---,0.01,VWS V14.01,2013-01-17 00:44:00,
2013-01-16 17:49:00,7.6,2.7,31.05,North,360,2.0,2.0,80,0.00,,---,0.01,VWS V14.01,2013-01-17 00:49:00,
2013-01-16 17:54:00,7.9,3.3,31.05,North,360,2.0,2.0,81,0.00,,---,0.01,VWS V14.01,2013-01-17 00:54:00,
2013-01-16 17:59:00,7.9,3.0,31.05,North,360,0.0,0.0,80,0.00,,---,0.01,VWS V14.01,2013-01-17 00:59:00,
2013-01-16 18:04:00,7.7,2.3,31.05,North,360,0.0,0.0,78,0.00,,---,0.01,VWS V14.01,2013-01-17 01:04:00,
2013-01-16 18:09:00,7.1,1.4,31.06,North,360,1.0,2.0,77,0.00,,---,0.01,VWS V14.01,2013-01-17 01:09:00,
2013-01-16 18:14:00,6.5,1.1,31.05,North,360,2.0,3.0,78,0.00,,---,0.01,VWS V14.01,2013-01-17 01:14:00,
2013-01-16 18:19:00,6.4,1.6,31.05,North,360,3.0,4.0,80,0.00,,---,0.01,VWS V14.01,2013-01-17 01:19:00,
2013-01-16 18:24:00,6.9,2.6,31.06,North,360,0.0,0.0,82,0.00,,---,0.01,VWS V14.01,2013-01-17 01:24:00,
2013-01-16 18:29:00,6.7,1.6,31.06,North,355,1.0,2.0,79,0.00,,---,0.01,VWS V14.01,2013-01-17 01:29:00,
2013-01-16 18:34:00,5.6,0.0,31.06,North,355,2.0,2.0,77,0.00,,---,0.01,VWS V14.01,2013-01-17 01:34:00,
2013-01-16 18:39:00,5.3,0.5,31.06,North,355,0.0,0.0,80,0.00,,---,0.01,VWS V14.01,2013-01-17 01:39:00,
2013-01-16 18:44:00,5.2,0.9,31.06,North,355,0.0,0.0,82,0.00,,---,0.01,VWS V14.01,2013-01-17 01:44:00,
2013-01-16 18:49:00,5.2,1.2,31.06,North,355,1.0,1.0,83,0.00,,---,0.01,VWS V14.01,2013-01-17 01:49:00,
2013-01-16 18:54:00,5.7,2.2,31.06,North,355,4.0,6.0,85,0.00,,---,0.01,VWS V14.01,2013-01-17 01:54:00,
2013-01-16 18:59:00,6.3,2.8,31.06,North,355,0.0,1.0,85,0.00,,---,0.01,VWS V14.01,2013-01-17 01:59:00,
2013-01-16 19:04:00,6.4,2.9,31.06,North,355,0.0,0.0,85,0.00,,---,0.01,VWS V14.01,2013-01-17 02:04:00,
2013-01-16 19:09:00,6.2,2.2,31.06,North,355,0.0,0.0,83,0.00,,---,0.01,VWS V14.01,2013-01-17 02:09:00,
2013-01-16 19:14:00,5.9,1.6,31.06,North,355,0.0,0.0,82,0.00,,---,0.01,VWS V14.01,2013-01-17 02:14:00,
2013-01-16 19:20:00,5.6,1.6,31.06,North,355,3.0,3.0,83,0.00,,---,0.01,VWS V14.01,2013-01-17 02:20:00,
2013-01-16 19:25:00,5.9,2.4,31.06,North,355,2.0,4.0,85,0.00,,---,0.01,VWS V14.01,2013-01-17 02:25:00,
2013-01-16 19:30:00,6.2,2.7,31.06,North,355,1.0,2.0,85,0.00,,---,0.01,VWS V14.01,2013-01-17 02:30:00,
2013-01-16 19:35:00,6.2,2.4,31.06,North,355,3.0,5.0,84,0.00,,---,0.01,VWS V14.01,2013-01-17 02:35:00,
2013-01-16 19:40:00,6.1,2.1,31.06,North,355,0.0,0.0,83,0.00,,---,0.01,VWS V14.01,2013-01-17 02:40:00,
2013-01-16 19:45:00,5.6,1.0,31.06,North,355,0.0,0.0,81,0.00,,---,0.01,VWS V14.01,2013-01-17 02:45:00,
2013-01-16 19:50:00,5.2,0.6,31.06,North,355,0.0,0.0,81,0.00,,---,0.01,VWS V14.01,2013-01-17 02:50:00,
2013-01-16 19:55:00,4.5,-0.3,31.06,North,355,0.0,0.0,80,0.00,,---,0.01,VWS V14.01,2013-01-17 02:55:00,
2013-01-16 20:00:00,4.0,-0.5,31.07,North,355,0.0,0.0,81,0.00,,---,0.01,VWS V14.01,2013-01-17 03:00:00,
2013-01-16 20:05:00,3.7,-0.6,31.07,North,355,0.0,0.0,82,0.00,,---,0.01,VWS V14.01,2013-01-17 03:05:00,
2013-01-16 20:10:00,3.4,-0.6,31.07,North,355,0.0,0.0,83,0.00,,---,0.01,VWS V14.01,2013-01-17 03:10:00,
2013-01-16 20:15:00,3.2,-0.3,31.07,North,355,0.0,0.0,85,0.00,,---,0.01,VWS V14.01,2013-01-17 03:15:00,
2013-01-16 20:20:00,3.2,-0.3,31.07,North,355,0.0,0.0,85,0.00,,---,0.01,VWS V14.01,2013-01-17 03:20:00,
2013-01-16 20:25:00,3.4,0.2,31.07,North,355,0.0,0.0,86,0.00,,---,0.01,VWS V14.01,2013-01-17 03:25:00,
2013-01-16 20:30:00,3.5,0.5,31.07,North,355,0.0,0.0,87,0.00,,---,0.01,VWS V14.01,2013-01-17 03:30:00,
2013-01-16 20:35:00,3.6,0.6,31.07,North,355,0.0,0.0,87,0.00,,---,0.01,VWS V14.01,2013-01-17 03:35:00,
2013-01-16 20:40:00,3.3,0.3,31.08,North,355,2.0,2.0,87,0.00,,---,0.01,VWS V14.01,2013-01-17 03:40:00,
2013-01-16 20:45:00,2.2,-1.5,31.08,North,355,0.0,0.0,84,0.00,,---,0.01,VWS V14.01,2013-01-17 03:45:00,
2013-01-16 20:50:00,2.0,-1.5,31.08,North,355,0.0,0.0,85,0.00,,---,0.01,VWS V14.01,2013-01-17 03:50:00,
2013-01-16 20:55:00,2.5,-0.2,31.08,North,355,0.0,0.0,88,0.00,,---,0.01,VWS V14.01,2013-01-17 03:55:00,
2013-01-16 21:00:00,3.0,0.3,31.08,North,355,0.0,0.0,88,0.00,,---,0.01,VWS V14.01,2013-01-17 04:00:00,
2013-01-16 21:05:00,3.1,0.4,31.09,North,355,0.0,0.0,88,0.00,,---,0.01,VWS V14.01,2013-01-17 04:05:00,
2013-01-16 21:10:00,3.0,0.3,31.09,North,355,1.0,1.0,88,0.00,,---,0.01,VWS V14.01,2013-01-17 04:10:00,
2013-01-16 21:15:00,2.9,-0.1,31.09,North,355,1.0,2.0,87,0.00,,---,0.01,VWS V14.01,2013-01-17 04:15:00,
2013-01-16 21:20:00,3.0,0.0,31.09,North,355,0.0,0.0,87,0.00,,---,0.01,VWS V14.01,2013-01-17 04:20:00,
2013-01-16 21:25:00,2.9,-0.1,31.09,North,355,2.0,2.0,87,0.00,,---,0.01,VWS V14.01,2013-01-17 04:25:00,
2013-01-16 21:30:00,2.9,-0.1,31.09,North,355,0.0,0.0,87,0.00,,---,0.01,VWS V14.01,2013-01-17 04:30:00,
2013-01-16 21:35:00,2.8,-0.2,31.09,North,355,0.0,1.0,87,0.00,,---,0.01,VWS V14.01,2013-01-17 04:35:00,
2013-01-16 21:40:00,2.9,-0.1,31.09,North,355,0.0,0.0,87,0.00,,---,0.01,VWS V14.01,2013-01-17 04:40:00,
2013-01-16 21:45:00,3.1,0.4,31.09,North,355,3.0,4.0,88,0.00,,---,0.01,VWS V14.01,2013-01-17 04:45:00,
2013-01-16 21:50:00,3.8,1.0,31.09,North,355,1.0,3.0,88,0.00,,---,0.01,VWS V14.01,2013-01-17 04:50:00,
2013-01-16 21:55:00,3.9,1.1,31.09,North,355,0.0,0.0,88,0.00,,---,0.01,VWS V14.01,2013-01-17 04:55:00,
2013-01-16 22:01:00,3.5,0.5,31.10,North,355,0.0,0.0,87,0.00,,---,0.01,VWS V14.01,2013-01-17 05:01:00,
2013-01-16 22:02:00,3.5,0.5,31.09,North,355,0.0,0.0,87,0.00,,---,0.01,VWS V14.01,2013-01-17 05:02:00,
2013-01-16 22:07:00,3.1,-0.1,31.10,North,355,0.0,0.0,86,0.00,,---,0.01,VWS V14.01,2013-01-17 05:07:00,
2013-01-16 22:12:00,2.9,-0.3,31.10,North,355,0.0,0.0,86,0.00,,---,0.01,VWS V14.01,2013-01-17 05:12:00,
2013-01-16 22:18:00,2.8,-0.4,31.10,North,355,0.0,0.0,86,0.00,,---,0.01,VWS V14.01,2013-01-17 05:18:00,
2013-01-16 22:23:00,2.6,-0.6,31.10,North,355,0.0,1.0,86,0.00,,---,0.01,VWS V14.01,2013-01-17 05:23:00,
2013-01-16 22:28:00,2.3,-1.2,31.10,North,355,1.0,2.0,85,0.00,,---,0.01,VWS V14.01,2013-01-17 05:28:00,
2013-01-16 22:33:00,2.2,-1.0,31.10,North,355,0.0,0.0,86,0.00,,---,0.01,VWS V14.01,2013-01-17 05:33:00,
2013-01-16 22:38:00,2.0,-1.2,31.10,North,355,0.0,0.0,86,0.00,,---,0.01,VWS V14.01,2013-01-17 05:38:00,
2013-01-16 22:43:00,1.8,-1.4,31.10,North,355,0.0,1.0,86,0.00,,---,0.01,VWS V14.01,2013-01-17 05:43:00,
2013-01-16 22:48:00,2.0,-1.0,31.10,North,355,0.0,0.0,87,0.00,,---,0.01,VWS V14.01,2013-01-17 05:48:00,
2013-01-16 22:53:00,2.3,-0.4,31.10,North,355,0.0,0.0,88,0.00,,---,0.01,VWS V14.01,2013-01-17 05:53:00,
2013-01-16 22:58:00,2.2,-0.8,31.10,North,355,0.0,0.0,87,0.00,,---,0.01,VWS V14.01,2013-01-17 05:58:00,
2013-01-16 23:03:00,1.9,-1.3,31.10,North,355,0.0,0.0,86,0.00,,---,0.01,VWS V14.01,2013-01-17 06:03:00,
2013-01-16 23:08:00,2.2,-0.8,31.10,North,350,2.0,5.0,87,0.00,,---,0.01,VWS V14.01,2013-01-17 06:08:00,
2013-01-16 23:13:00,3.0,0.3,31.10,NNW,347,0.0,0.0,88,0.00,,---,0.01,VWS V14.01,2013-01-17 06:13:00,
2013-01-16 23:18:00,2.8,-0.2,31.10,NNW,347,0.0,0.0,87,0.00,,---,0.01,VWS V14.01,2013-01-17 06:18:00,
2013-01-16 23:23:00,2.6,-0.6,31.10,NNW,347,0.0,0.0,86,0.00,,---,0.01,VWS V14.01,2013-01-17 06:23:00,
2013-01-16 23:28:00,2.0,-1.5,31.10,NNW,347,0.0,1.0,85,0.00,,---,0.01,VWS V14.01,2013-01-17 06:28:00,
2013-01-16 23:33:00,1.7,-1.8,31.10,NNW,347,0.0,0.0,85,0.00,,---,0.01,VWS V14.01,2013-01-17 06:33:00,
2013-01-16 23:38:00,1.5,-1.7,31.10,NNW,347,0.0,0.0,86,0.00,,---,0.01,VWS V14.01,2013-01-17 06:38:00,
2013-01-16 23:43:00,1.5,-1.5,31.10,NNW,347,0.0,0.0,87,0.00,,---,0.01,VWS V14.01,2013-01-17 06:43:00,
2013-01-16 23:48:00,1.7,-1.3,31.10,NNW,347,1.0,1.0,87,0.00,,---,0.01,VWS V14.01,2013-01-17 06:48:00,
2013-01-16 23:53:00,2.2,-0.5,31.10,NNW,347,3.0,3.0,88,0.00,,---,0.01,VWS V14.01,2013-01-17 06:53:00,
2013-01-16 23:58:00,2.7,0.0,31.10,NNW,347,1.0,1.0,88,0.00,,---,0.01,VWS V14.01,2013-01-17 06:58:00,